QFA286 YWLM-YSTW
Flight info
| Callsign | QFA286 |
|---|---|
| Flight time | N/A |
| Altitude | 16000 |
| Route | KEXAR V258 TW |
| Aircraft | B738/M-SDE2E3FGHIRWXY/LB1 |
Departure
| Time | 2026-05-01 10:51 |
|---|---|
| Airport | Newcastle Airport (YWLM) |
Arrival
| Time | N/A |
|---|---|
| Airport | Tamworth Airport (YSTW) |
| Time | Latitude | Longitude | Altitude | Speed | Heading |
|---|---|---|---|---|---|
| 2026-05-01 10:31 | -32.80529 | 151.84236 | 37 ft | 0 kts | 258° |
| 2026-05-01 10:42 | -32.80537 | 151.84190 | 37 ft | 1 kts | 258° |
| 2026-05-01 10:42 | -32.80537 | 151.84189 | 37 ft | 0 kts | 258° |
| 2026-05-01 10:43 | -32.80536 | 151.84193 | 37 ft | 1 kts | 258° |
| 2026-05-01 10:43 | -32.80535 | 151.84222 | 37 ft | 4 kts | 277° |
| 2026-05-01 10:43 | -32.80535 | 151.84224 | 37 ft | 6 kts | 279° |
| 2026-05-01 10:43 | -32.80484 | 151.84161 | 37 ft | 14 kts | 343° |
| 2026-05-01 10:44 | -32.80376 | 151.84099 | 37 ft | 20 kts | 321° |
| 2026-05-01 10:44 | -32.80274 | 151.83969 | 37 ft | 21 kts | 311° |
| 2026-05-01 10:44 | -32.80231 | 151.83911 | 37 ft | 0 kts | 311° |
| 2026-05-01 10:45 | -32.80226 | 151.83903 | 37 ft | 8 kts | 311° |
| 2026-05-01 10:45 | -32.80123 | 151.83820 | 37 ft | 21 kts | 359° |
| 2026-05-01 10:45 | -32.79986 | 151.83843 | 37 ft | 17 kts | 8° |
| 2026-05-01 10:46 | -32.79860 | 151.83882 | 37 ft | 18 kts | 27° |
| 2026-05-01 10:46 | -32.79778 | 151.83972 | 37 ft | 15 kts | 26° |
| 2026-05-01 10:46 | -32.79699 | 151.83925 | 37 ft | 18 kts | 311° |
| 2026-05-01 10:46 | -32.79644 | 151.83849 | 37 ft | 22 kts | 310° |
| 2026-05-01 10:47 | -32.79622 | 151.83820 | 37 ft | 24 kts | 310° |
| 2026-05-01 10:47 | -32.79471 | 151.83607 | 37 ft | 36 kts | 310° |
| 2026-05-01 10:48 | -32.79319 | 151.83394 | 37 ft | 31 kts | 310° |
| 2026-05-01 10:48 | -32.79165 | 151.83177 | 37 ft | 36 kts | 310° |
| 2026-05-01 10:48 | -32.79001 | 151.82948 | 37 ft | 36 kts | 310° |
| 2026-05-01 10:48 | -32.78849 | 151.82736 | 37 ft | 31 kts | 310° |
| 2026-05-01 10:49 | -32.78714 | 151.82548 | 37 ft | 27 kts | 310° |
| 2026-05-01 10:49 | -32.78631 | 151.82378 | 37 ft | 20 kts | 256° |
| 2026-05-01 10:49 | -32.78719 | 151.82292 | 37 ft | 14 kts | 174° |
| 2026-05-01 10:49 | -32.78785 | 151.82359 | 37 ft | 12 kts | 130° |
| 2026-05-01 10:50 | -32.78842 | 151.82439 | 37 ft | 13 kts | 130° |
| 2026-05-01 10:50 | -32.78904 | 151.82524 | 37 ft | 14 kts | 128° |
| 2026-05-01 10:50 | -32.79155 | 151.82880 | 37 ft | 105 kts | 130° |
| 2026-05-01 10:50 | -32.79818 | 151.83803 | 141 ft | 175 kts | 130° |
| 2026-05-01 10:51 | -32.80621 | 151.84923 | 906 ft | 191 kts | 130° |
| 2026-05-01 10:51 | -32.81477 | 151.86118 | 1775 ft | 194 kts | 130° |
| 2026-05-01 10:51 | -32.82402 | 151.87407 | 2163 ft | 216 kts | 130° |
| 2026-05-01 10:51 | -32.83402 | 151.88800 | 2640 ft | 230 kts | 131° |
| 2026-05-01 10:52 | -32.84693 | 151.89944 | 3202 ft | 238 kts | 159° |
| 2026-05-01 10:52 | -32.86308 | 151.90214 | 3916 ft | 238 kts | 180° |
| 2026-05-01 10:52 | -32.87942 | 151.89949 | 4501 ft | 244 kts | 198° |
| 2026-05-01 10:52 | -32.89387 | 151.88895 | 5158 ft | 245 kts | 224° |
| 2026-05-01 10:53 | -32.90343 | 151.87234 | 5803 ft | 247 kts | 246° |
| 2026-05-01 10:53 | -32.90735 | 151.85234 | 6411 ft | 255 kts | 269° |
| 2026-05-01 10:53 | -32.90424 | 151.83220 | 7274 ft | 253 kts | 289° |
| 2026-05-01 10:53 | -32.89807 | 151.81369 | 7965 ft | 256 kts | 293° |
| 2026-05-01 10:54 | -32.89137 | 151.79454 | 8760 ft | 259 kts | 292° |
| 2026-05-01 10:54 | -32.88471 | 151.77481 | 9558 ft | 261 kts | 291° |
| 2026-05-01 10:54 | -32.87805 | 151.75485 | 10307 ft | 267 kts | 291° |
| 2026-05-01 10:54 | -32.87112 | 151.73395 | 10902 ft | 283 kts | 291° |
| 2026-05-01 10:55 | -32.86306 | 151.71168 | 11293 ft | 305 kts | 298° |
| 2026-05-01 10:55 | -32.84965 | 151.69133 | 11638 ft | 327 kts | 320° |
| 2026-05-01 10:55 | -32.83009 | 151.67612 | 12073 ft | 345 kts | 330° |
| 2026-05-01 10:55 | -32.80884 | 151.66132 | 12366 ft | 365 kts | 328° |
| 2026-05-01 10:56 | -32.78704 | 151.64545 | 13243 ft | 367 kts | 328° |
| 2026-05-01 10:56 | -32.76512 | 151.62932 | 13787 ft | 378 kts | 328° |
| 2026-05-01 10:56 | -32.74294 | 151.61296 | 14667 ft | 377 kts | 328° |
| 2026-05-01 10:56 | -32.72065 | 151.59648 | 15273 ft | 384 kts | 328° |
| 2026-05-01 10:57 | -32.69801 | 151.57973 | 16046 ft | 386 kts | 328° |
| 2026-05-01 10:57 | -32.67521 | 151.56284 | 16379 ft | 389 kts | 328° |
| 2026-05-01 10:57 | -32.65241 | 151.54594 | 16370 ft | 391 kts | 328° |
| 2026-05-01 10:57 | -32.62948 | 151.52896 | 16373 ft | 389 kts | 328° |
| 2026-05-01 10:58 | -32.60645 | 151.51190 | 16375 ft | 389 kts | 328° |
| 2026-05-01 10:58 | -32.58379 | 151.49515 | 16375 ft | 389 kts | 328° |
| 2026-05-01 10:58 | -32.56074 | 151.47809 | 16373 ft | 389 kts | 328° |
| 2026-05-01 10:58 | -32.53784 | 151.46117 | 16373 ft | 389 kts | 328° |
| 2026-05-01 10:59 | -32.51500 | 151.44429 | 16372 ft | 389 kts | 328° |
| 2026-05-01 10:59 | -32.49215 | 151.42778 | 16372 ft | 389 kts | 330° |
| 2026-05-01 10:59 | -32.46801 | 151.41303 | 16371 ft | 389 kts | 336° |
| 2026-05-01 10:59 | -32.44309 | 151.40129 | 16379 ft | 393 kts | 339° |
| 2026-05-01 11:00 | -32.41685 | 151.38995 | 16381 ft | 404 kts | 340° |
| 2026-05-01 11:00 | -32.39051 | 151.37862 | 16373 ft | 414 kts | 340° |
| 2026-05-01 11:00 | -32.36306 | 151.36690 | 16371 ft | 421 kts | 340° |
| 2026-05-01 11:00 | -32.33561 | 151.35527 | 16367 ft | 423 kts | 340° |
| 2026-05-01 11:01 | -32.30805 | 151.34364 | 16371 ft | 422 kts | 340° |
| 2026-05-01 11:01 | -32.28028 | 151.33197 | 16370 ft | 422 kts | 340° |
| 2026-05-01 11:01 | -32.25274 | 151.32040 | 16372 ft | 422 kts | 340° |
| 2026-05-01 11:01 | -32.22523 | 151.30887 | 16372 ft | 422 kts | 340° |
| 2026-05-01 11:02 | -32.19775 | 151.29736 | 16372 ft | 422 kts | 340° |
| 2026-05-01 11:02 | -32.16994 | 151.28572 | 16372 ft | 422 kts | 341° |
| 2026-05-01 11:02 | -32.14238 | 151.27420 | 16372 ft | 422 kts | 341° |
| 2026-05-01 11:02 | -32.11462 | 151.26260 | 16372 ft | 422 kts | 341° |
| 2026-05-01 11:03 | -32.08693 | 151.25105 | 16372 ft | 422 kts | 341° |
| 2026-05-01 11:03 | -32.05965 | 151.23969 | 16372 ft | 422 kts | 341° |
| 2026-05-01 11:03 | -32.03198 | 151.22815 | 16372 ft | 422 kts | 341° |
| 2026-05-01 11:03 | -32.00405 | 151.21652 | 16372 ft | 422 kts | 341° |
| 2026-05-01 11:04 | -31.97646 | 151.20503 | 16372 ft | 422 kts | 341° |
| 2026-05-01 11:04 | -31.94890 | 151.19357 | 16372 ft | 422 kts | 341° |
| 2026-05-01 11:04 | -31.92145 | 151.18216 | 16350 ft | 423 kts | 341° |
| 2026-05-01 11:04 | -31.89351 | 151.17056 | 16317 ft | 422 kts | 341° |
| 2026-05-01 11:05 | -31.86618 | 151.15922 | 16318 ft | 422 kts | 341° |
| 2026-05-01 11:05 | -31.83843 | 151.14771 | 16319 ft | 422 kts | 341° |
| 2026-05-01 11:05 | -31.81073 | 151.13623 | 16318 ft | 422 kts | 341° |
| 2026-05-01 11:05 | -31.78316 | 151.12480 | 16318 ft | 422 kts | 341° |
| 2026-05-01 11:06 | -31.75553 | 151.11337 | 16318 ft | 422 kts | 341° |
| 2026-05-01 11:06 | -31.72797 | 151.10196 | 16318 ft | 422 kts | 341° |
| 2026-05-01 11:06 | -31.70025 | 151.09050 | 16318 ft | 422 kts | 341° |
| 2026-05-01 11:07 | -31.64477 | 151.06758 | 16318 ft | 422 kts | 341° |
| 2026-05-01 11:07 | -31.61713 | 151.05617 | 16318 ft | 422 kts | 341° |
| 2026-05-01 11:07 | -31.58961 | 151.04483 | 16318 ft | 422 kts | 341° |
| 2026-05-01 11:07 | -31.56187 | 151.03339 | 16318 ft | 421 kts | 341° |
| 2026-05-01 11:08 | -31.53506 | 151.02235 | 16307 ft | 403 kts | 341° |
| 2026-05-01 11:08 | -31.50948 | 151.01181 | 16315 ft | 382 kts | 341° |
| 2026-05-01 11:08 | -31.45955 | 150.99129 | 16086 ft | 374 kts | 341° |
| 2026-05-01 11:09 | -31.43503 | 150.98120 | 15485 ft | 380 kts | 341° |
| 2026-05-01 11:09 | -31.41023 | 150.97101 | 14833 ft | 375 kts | 341° |
| 2026-05-01 11:09 | -31.38594 | 150.96104 | 14187 ft | 371 kts | 341° |
| 2026-05-01 11:10 | -31.33814 | 150.94144 | 12905 ft | 362 kts | 341° |
| 2026-05-01 11:10 | -31.31456 | 150.93178 | 12266 ft | 357 kts | 341° |
| 2026-05-01 11:10 | -31.29125 | 150.92223 | 11633 ft | 353 kts | 341° |
| 2026-05-01 11:10 | -31.26829 | 150.91283 | 11057 ft | 348 kts | 341° |
| 2026-05-01 11:11 | -31.24626 | 150.90381 | 10902 ft | 330 kts | 341° |
| 2026-05-01 11:11 | -31.22498 | 150.89511 | 10597 ft | 320 kts | 341° |
| 2026-05-01 11:11 | -31.20453 | 150.88675 | 10362 ft | 308 kts | 341° |
| 2026-05-01 11:11 | -31.18599 | 150.87917 | 10205 ft | 296 kts | 341° |
| 2026-05-01 11:12 | -31.16849 | 150.87203 | 9925 ft | 291 kts | 341° |
| 2026-05-01 11:12 | -31.14984 | 150.86441 | 9552 ft | 288 kts | 341° |
| 2026-05-01 11:12 | -31.13123 | 150.85681 | 9191 ft | 284 kts | 341° |
| 2026-05-01 11:12 | -31.11275 | 150.84927 | 8834 ft | 281 kts | 341° |
| 2026-05-01 11:13 | -31.09450 | 150.84183 | 8481 ft | 277 kts | 341° |
| 2026-05-01 11:13 | -31.07642 | 150.83446 | 8132 ft | 274 kts | 341° |
| 2026-05-01 11:13 | -31.05885 | 150.82669 | 7852 ft | 269 kts | 336° |
| 2026-05-01 11:13 | -31.04234 | 150.81775 | 7606 ft | 265 kts | 334° |
| 2026-05-01 11:14 | -31.02576 | 150.80864 | 7357 ft | 264 kts | 335° |
| 2026-05-01 11:14 | -31.00919 | 150.79967 | 7086 ft | 260 kts | 335° |
| 2026-05-01 11:14 | -30.99277 | 150.79080 | 6688 ft | 259 kts | 335° |
| 2026-05-01 11:14 | -30.97651 | 150.78203 | 6130 ft | 257 kts | 335° |
| 2026-05-01 11:15 | -30.96085 | 150.77361 | 5904 ft | 242 kts | 335° |
| 2026-05-01 11:15 | -30.94644 | 150.76561 | 5836 ft | 218 kts | 330° |
| 2026-05-01 11:15 | -30.93568 | 150.75499 | 5762 ft | 188 kts | 307° |
| 2026-05-01 11:15 | -30.93018 | 150.74251 | 5663 ft | 166 kts | 287° |
| 2026-05-01 11:16 | -30.92852 | 150.72914 | 5598 ft | 170 kts | 268° |
| 2026-05-01 11:16 | -30.93095 | 150.71559 | 5304 ft | 169 kts | 247° |
| 2026-05-01 11:16 | -30.93695 | 150.70410 | 5031 ft | 166 kts | 229° |
| 2026-05-01 11:16 | -30.94572 | 150.69556 | 4785 ft | 166 kts | 209° |
| 2026-05-01 11:17 | -30.95609 | 150.69083 | 4529 ft | 156 kts | 185° |
| 2026-05-01 11:17 | -30.96568 | 150.69476 | 4389 ft | 153 kts | 133° |
| 2026-05-01 11:17 | -30.96981 | 150.70619 | 4228 ft | 155 kts | 96° |
| 2026-05-01 11:17 | -30.97231 | 150.71817 | 4004 ft | 155 kts | 124° |
| 2026-05-01 11:18 | -30.98046 | 150.72603 | 3843 ft | 153 kts | 147° |
| 2026-05-01 11:18 | -30.98854 | 150.73413 | 3620 ft | 153 kts | 134° |
| 2026-05-01 11:18 | -30.99588 | 150.74312 | 3422 ft | 152 kts | 133° |
| 2026-05-01 11:18 | -31.00306 | 150.75200 | 3224 ft | 151 kts | 133° |
| 2026-05-01 11:19 | -31.01017 | 150.76085 | 3033 ft | 151 kts | 133° |
| 2026-05-01 11:19 | -31.01737 | 150.76984 | 2819 ft | 151 kts | 133° |
| 2026-05-01 11:19 | -31.02453 | 150.77879 | 2618 ft | 150 kts | 133° |
| 2026-05-01 11:19 | -31.03166 | 150.78769 | 2418 ft | 150 kts | 133° |
| 2026-05-01 11:20 | -31.03871 | 150.79651 | 2220 ft | 150 kts | 133° |
| 2026-05-01 11:20 | -31.04583 | 150.80541 | 2021 ft | 149 kts | 133° |
| 2026-05-01 11:20 | -31.05286 | 150.81419 | 1824 ft | 149 kts | 133° |
| 2026-05-01 11:20 | -31.05996 | 150.82307 | 1625 ft | 148 kts | 133° |
| 2026-05-01 11:21 | -31.06697 | 150.83185 | 1430 ft | 148 kts | 133° |
| 2026-05-01 11:21 | -31.07382 | 150.84041 | 1343 ft | 139 kts | 133° |
| 2026-05-01 11:21 | -31.07982 | 150.84788 | 1343 ft | 114 kts | 133° |
| 2026-05-01 11:21 | -31.08443 | 150.85345 | 1342 ft | 65 kts | 157° |